Time;durP1;ratioP1;P1;durP2;ratioP2;P2;SDS_P1;SDS_P2;PMS_P1;PMS_P2;Temp;Humidity;BMP_temperature;BMP_pressure;BME280_temperature;BME280_humidity;BME280_pressure;Samples;Min_cycle;Max_cycle;Signal;HPM_P1;HPM_P2
2021/01/25 00:00:41;;;;;;;10.45;8.52;;;;;;;10.62;56.20;99032.72;4884691;28;122241;-62
2021/01/25 00:03:07;;;;;;;9.65;7.97;;;;;;;10.63;56.06;99031.59;4882621;28;125598;-62
2021/01/25 00:05:36;;;;;;;10.02;8.02;;;;;;;10.59;56.62;99031.41;4902624;28;128923;-62
2021/01/25 00:08:02;;;;;;;11.60;8.73;;;;;;;10.61;56.40;99033.78;4889977;28;100221;-62
2021/01/25 00:10:28;;;;;;;10.63;8.32;;;;;;;10.59;56.67;99034.09;4891958;28;97954;-62
2021/01/25 00:12:54;;;;;;;11.00;9.10;;;;;;;10.57;56.67;99023.63;4886949;28;109329;-62
2021/01/25 00:15:20;;;;;;;11.15;9.02;;;;;;;10.57;56.40;99026.34;4897784;28;99482;-62
2021/01/25 00:17:46;;;;;;;12.05;9.45;;;;;;;10.59;56.37;99036.00;4882819;28;101337;-62
2021/01/25 00:20:14;;;;;;;11.80;9.27;;;;;;;10.57;56.27;99029.03;4913239;28;122899;-62
2021/01/25 00:22:43;;;;;;;12.00;9.65;;;;;;;10.57;56.16;99030.91;4919895;28;120113;-62
2021/01/25 00:25:09;;;;;;;12.27;9.88;;;;;;;10.56;56.83;99030.09;4920356;28;98485;-62
2021/01/25 00:27:35;;;;;;;12.30;9.70;;;;;;;10.55;56.10;99028.50;4900618;28;98412;-62
2021/01/25 00:30:01;;;;;;;11.88;9.50;;;;;;;10.55;56.25;99030.41;4896438;28;123375;-62
2021/01/25 00:32:30;;;;;;;11.82;9.68;;;;;;;10.54;55.76;99026.13;4908972;28;128300;-62
2021/01/25 00:34:56;;;;;;;12.02;9.98;;;;;;;10.55;57.00;99027.72;4898515;28;127170;-62
2021/01/25 00:37:22;;;;;;;11.65;9.48;;;;;;;10.54;56.41;99028.81;4900207;28;126615;-62
2021/01/25 00:39:48;;;;;;;12.93;10.02;;;;;;;10.52;56.39;99029.13;4880011;28;120860;-62
2021/01/25 00:42:17;;;;;;;12.23;9.80;;;;;;;10.51;56.67;99035.59;4877256;28;122297;-62
2021/01/25 00:44:43;;;;;;;11.43;9.75;;;;;;;10.50;56.64;99028.63;4897843;28;98953;-62
2021/01/25 00:47:09;;;;;;;11.65;9.77;;;;;;;10.52;56.67;99028.31;4905304;28;113651;-62
2021/01/25 00:49:35;;;;;;;11.88;9.40;;;;;;;10.51;56.02;99027.53;4869172;28;117251;-62
2021/01/25 00:52:01;;;;;;;11.55;9.35;;;;;;;10.51;56.44;99035.59;4893961;28;99083;-62
2021/01/25 00:54:27;;;;;;;11.40;9.48;;;;;;;10.49;56.70;99028.91;4869061;28;128410;-62
2021/01/25 00:56:53;;;;;;;12.88;9.88;;;;;;;10.52;56.43;99034.50;4897713;28;126681;-62
2021/01/25 00:59:19;;;;;;;13.23;10.20;;;;;;;10.51;56.21;99037.50;4899731;28;124149;-62
2021/01/25 01:01:45;;;;;;;11.35;9.43;;;;;;;10.52;55.83;99034.50;4900703;28;98513;-62
2021/01/25 01:04:11;;;;;;;12.25;9.48;;;;;;;10.51;56.62;99032.13;4899417;28;123499;-62
2021/01/25 01:06:37;;;;;;;11.45;9.77;;;;;;;10.52;56.40;99034.50;4900943;28;102839;-62
2021/01/25 01:09:03;;;;;;;11.63;9.68;;;;;;;10.51;56.33;99034.81;4902083;28;98047;-62
2021/01/25 01:11:30;;;;;;;11.18;9.63;;;;;;;10.53;56.62;99046.06;4900957;28;113357;-62
2021/01/25 01:13:56;;;;;;;12.32;9.68;;;;;;;10.53;55.93;99035.28;4893817;28;99033;-62
2021/01/25 01:16:22;;;;;;;11.55;9.60;;;;;;;10.54;56.73;99043.09;4897891;28;126161;-62
2021/01/25 01:18:48;;;;;;;11.90;9.45;;;;;;;10.54;56.54;99042.31;4870098;28;123206;-62
2021/01/25 01:21:14;;;;;;;11.38;9.50;;;;;;;10.55;56.54;99039.28;4882856;28;128213;-62
2021/01/25 01:23:40;;;;;;;10.73;9.23;;;;;;;10.53;56.35;99041.50;4901260;28;127835;-62
2021/01/25 01:26:06;;;;;;;13.65;10.18;;;;;;;10.55;56.56;99050.06;4901001;28;126842;-62
2021/01/25 01:28:32;;;;;;;10.63;9.27;;;;;;;10.57;56.98;99052.44;4901258;28;102055;-62
2021/01/25 01:30:58;;;;;;;11.93;9.52;;;;;;;10.57;56.13;99052.44;4894970;28;128209;-62
2021/01/25 01:33:24;;;;;;;11.43;9.50;;;;;;;10.57;56.55;99049.75;4890449;28;125995;-62
2021/01/25 01:35:50;;;;;;;12.82;9.85;;;;;;;10.55;56.40;99044.69;4898889;28;125080;-62
2021/01/25 01:38:16;;;;;;;11.40;9.43;;;;;;;10.56;55.87;99050.88;4874016;28;113657;-62
2021/01/25 01:40:42;;;;;;;10.73;9.25;;;;;;;10.54;56.12;99056.56;4885765;28;128209;-62
2021/01/25 01:43:08;;;;;;;11.30;9.77;;;;;;;10.56;56.10;99062.44;4905146;28;98431;-62
2021/01/25 01:45:34;;;;;;;11.75;10.13;;;;;;;10.56;56.27;99054.34;4886529;28;98195;-62
2021/01/25 01:48:00;;;;;;;12.57;10.13;;;;;;;10.57;56.99;99065.94;4882346;28;97980;-62
2021/01/25 01:50:27;;;;;;;11.50;9.50;;;;;;;10.56;56.70;99065.13;4870896;28;128707;-62
2021/01/25 01:52:53;;;;;;;12.48;9.95;;;;;;;10.56;56.13;99062.44;4884764;28;98577;-62
2021/01/25 01:55:21;;;;;;;12.27;10.32;;;;;;;10.55;56.19;99054.66;4887274;28;127760;-62
2021/01/25 01:57:50;;;;;;;11.82;10.15;;;;;;;10.59;56.49;99062.94;4885169;28;97909;-63
2021/01/25 02:00:17;;;;;;;12.85;10.65;;;;;;;10.63;56.25;99064.72;4902426;28;99008;-62
2021/01/25 02:02:43;;;;;;;13.50;10.25;;;;;;;10.66;55.97;99063.34;4903405;28;99048;-62
2021/01/25 02:05:10;;;;;;;11.80;9.77;;;;;;;10.71;55.74;99063.22;4904342;28;117649;-62
2021/01/25 02:07:36;;;;;;;12.32;10.10;;;;;;;10.74;55.94;99059.94;4885541;28;97997;-62
2021/01/25 02:10:03;;;;;;;12.27;10.32;;;;;;;10.77;55.82;99062.03;4881670;28;114195;-61
2021/01/25 02:12:29;;;;;;;10.93;9.57;;;;;;;10.76;55.77;99060.41;4881021;28;116396;-62
2021/01/25 02:14:58;;;;;;;12.23;10.50;;;;;;;10.78;55.60;99066.31;4857168;28;128470;-62
2021/01/25 02:17:24;;;;;;;11.88;10.05;;;;;;;10.79;55.86;99062.53;4882149;28;108842;-62
2021/01/25 02:20:08;;;;;;;12.82;10.38;;;;;;;10.78;55.18;99064.41;4883408;28;118916;-62
2021/01/25 02:23:05;;;;;;;12.38;10.05;;;;;;;10.79;56.21;99062.53;4867762;28;99254;-62
2021/01/25 02:26:02;;;;;;;12.60;9.88;;;;;;;10.78;55.34;99060.94;4880126;28;124239;-62
2021/01/25 02:28:31;;;;;;;11.50;9.60;;;;;;;10.78;55.58;99064.41;4872549;28;98793;-62
2021/01/25 02:31:02;;;;;;;11.60;9.93;;;;;;;10.77;55.54;99062.03;4866973;28;124916;-62
2021/01/25 02:33:28;;;;;;;11.77;10.23;;;;;;;10.78;55.55;99067.13;4850280;28;99485;-62
2021/01/25 02:35:54;;;;;;;11.70;9.82;;;;;;;10.80;55.55;99066.81;4866295;28;128406;-62
2021/01/25 02:38:20;;;;;;;11.60;10.18;;;;;;;10.79;55.95;99070.59;4868379;28;98239;-62
2021/01/25 02:40:47;;;;;;;12.30;10.05;;;;;;;10.78;54.94;99066.31;4869775;28;126805;-62
2021/01/25 02:43:14;;;;;;;11.63;9.60;;;;;;;10.78;55.89;99069.00;4871204;28;98911;-62
2021/01/25 02:45:41;;;;;;;12.70;9.93;;;;;;;10.78;55.31;99077.09;4865908;28;98361;-62
2021/01/25 02:48:08;;;;;;;11.70;10.02;;;;;;;10.77;56.15;99072.81;4879261;28;98185;-62
2021/01/25 02:50:34;;;;;;;11.90;9.68;;;;;;;10.78;55.27;99074.41;4865181;28;122909;-62
2021/01/25 02:53:00;;;;;;;12.20;10.07;;;;;;;10.78;55.66;99071.72;4883113;28;110160;-62
2021/01/25 02:55:26;;;;;;;11.00;9.68;;;;;;;10.77;54.98;99073.63;4883064;28;128246;-62
2021/01/25 02:57:54;;;;;;;11.95;10.45;;;;;;;10.75;55.67;99073.09;4883131;28;98679;-62
2021/01/25 03:00:21;;;;;;;12.40;10.05;;;;;;;10.74;55.39;99076.91;4880070;28;123351;-62
2021/01/25 03:02:47;;;;;;;12.75;10.48;;;;;;;10.75;55.67;99075.78;4866183;28;115644;-62
2021/01/25 03:05:13;;;;;;;11.75;9.77;;;;;;;10.72;55.07;99079.09;4866587;28;109376;-62
2021/01/25 03:07:40;;;;;;;12.95;10.48;;;;;;;10.72;55.36;99071.00;4883650;28;122325;-62
2021/01/25 03:10:07;;;;;;;12.45;10.50;;;;;;;10.72;55.45;99079.09;4872895;28;98853;-62
2021/01/25 03:12:33;;;;;;;13.48;11.02;;;;;;;10.72;55.64;99068.31;4899048;28;99173;-62
2021/01/25 03:14:59;;;;;;;13.00;10.77;;;;;;;10.72;55.52;99071.00;4891227;28;126503;-62
2021/01/25 03:17:25;;;;;;;12.77;10.68;;;;;;;10.71;55.30;99077.50;4879743;28;106752;-62
2021/01/25 03:19:51;;;;;;;13.32;10.90;;;;;;;10.72;55.37;99078.28;4894424;28;127966;-62
2021/01/25 03:22:17;;;;;;;13.07;11.23;;;;;;;10.69;55.97;99078.88;4898462;28;106031;-62
2021/01/25 03:24:43;;;;;;;13.43;10.85;;;;;;;10.70;55.72;99081.31;4898738;28;98393;-62
2021/01/25 03:27:09;;;;;;;12.98;10.82;;;;;;;10.70;55.45;99085.91;4893709;28;98096;-62
2021/01/25 03:29:35;;;;;;;14.18;11.27;;;;;;;10.68;55.87;99085.38;4898179;28;98811;-62
2021/01/25 03:32:01;;;;;;;13.23;11.07;;;;;;;10.68;55.59;99080.78;4897012;28;128078;-62
2021/01/25 03:34:27;;;;;;;14.20;11.65;;;;;;;10.70;55.54;99086.69;4898145;28;98089;-62
2021/01/25 03:36:53;;;;;;;13.32;11.55;;;;;;;10.67;56.10;99084.59;4894086;28;123074;-62
2021/01/25 04:04:58;;;;;;;14.65;11.35;;;;;;;10.56;56.88;99107.44;4909826;28;98108;-62
2021/01/25 04:07:24;;;;;;;15.02;11.25;;;;;;;10.60;57.07;99097.66;4886531;28;98468;-62
2021/01/25 04:09:50;;;;;;;15.25;11.95;;;;;;;10.59;56.50;99095.28;4895397;28;127823;-62
2021/01/25 04:12:16;;;;;;;16.20;12.63;;;;;;;10.60;56.24;99097.66;4912910;28;127022;-62
2021/01/25 04:14:43;;;;;;;16.67;12.82;;;;;;;10.63;56.43;99098.97;4913441;28;123051;-62
2021/01/25 04:17:09;;;;;;;14.70;12.32;;;;;;;10.63;56.01;99102.47;4909114;28;127210;-62
2021/01/25 04:19:35;;;;;;;16.08;12.15;;;;;;;10.63;56.51;99096.28;4911220;28;126936;-62
2021/01/25 04:22:01;;;;;;;14.88;11.88;;;;;;;10.63;56.29;99107.84;4895777;28;122821;-61
2021/01/25 04:24:27;;;;;;;16.38;12.90;;;;;;;10.63;55.96;99099.75;4891347;28;123828;-62
2021/01/25 04:26:53;;;;;;;14.05;12.02;;;;;;;10.64;55.80;99101.34;4910086;28;128565;-62
2021/01/25 04:29:19;;;;;;;16.20;12.05;;;;;;;10.64;56.53;99114.03;4901468;28;128191;-62
2021/01/25 04:31:45;;;;;;;14.82;12.48;;;;;;;10.66;56.47;99114.53;4915431;28;98273;-62
2021/01/25 04:34:11;;;;;;;13.82;12.18;;;;;;;10.63;55.74;99115.13;4906231;28;121902;-62
2021/01/25 04:36:37;;;;;;;16.23;13.00;;;;;;;10.63;55.94;99118.63;4898999;28;124809;-62
2021/01/25 04:39:03;;;;;;;15.27;12.35;;;;;;;10.65;56.23;99119.13;4891030;28;105955;-62
2021/01/25 04:41:29;;;;;;;15.18;12.43;;;;;;;10.63;56.19;99121.31;4895227;28;127998;-62
2021/01/25 04:43:55;;;;;;;14.32;12.20;;;;;;;10.62;56.20;99133.22;4900086;28;100438;-62
2021/01/25 04:46:24;;;;;;;14.50;12.35;;;;;;;10.59;55.52;99136.50;4899438;28;98855;-62
2021/01/25 04:48:51;;;;;;;15.57;12.70;;;;;;;10.62;56.17;99133.22;4894647;28;99032;-62
2021/01/25 04:51:17;;;;;;;15.35;12.65;;;;;;;10.64;56.11;99132.91;4909260;28;98756;-62
2021/01/25 04:53:44;;;;;;;15.43;12.20;;;;;;;10.63;56.54;99134.81;4913077;28;97868;-62
2021/01/25 04:56:11;;;;;;;14.73;12.13;;;;;;;10.63;55.81;99140.19;4899013;28;111953;-62
2021/01/25 04:58:37;;;;;;;13.88;11.77;;;;;;;10.64;56.16;99141.78;4889376;28;98885;-62
2021/01/25 05:01:03;;;;;;;14.95;12.48;;;;;;;10.63;55.86;99150.97;4887727;28;127874;-62
2021/01/25 05:03:29;;;;;;;15.00;12.18;;;;;;;10.65;55.82;99145.25;4903586;28;123508;-62
2021/01/25 05:05:56;;;;;;;14.40;12.23;;;;;;;10.65;55.67;99142.56;4915116;28;118555;-62
2021/01/25 05:08:22;;;;;;;14.90;11.90;;;;;;;10.65;55.84;99145.25;4898224;28;98747;-62
2021/01/25 05:10:48;;;;;;;14.05;11.70;;;;;;;10.66;56.09;99146.88;4913884;28;98209;-62
2021/01/25 05:13:25;;;;;;;15.57;12.32;;;;;;;10.63;55.91;99142.88;4903490;28;111614;-62
2021/01/25 05:15:52;;;;;;;14.15;11.60;;;;;;;10.65;55.91;99146.09;4901299;28;99938;-62
2021/01/25 05:18:24;;;;;;;14.07;11.80;;;;;;;10.64;56.01;99141.78;4899646;28;98538;-62
2021/01/25 05:20:54;;;;;;;14.95;12.15;;;;;;;10.65;56.03;99140.69;4918880;28;98660;-62
2021/01/25 05:23:20;;;;;;;14.13;11.95;;;;;;;10.67;56.07;99135.78;4918039;28;97866;-63
2021/01/25 05:25:46;;;;;;;13.80;11.95;;;;;;;10.68;55.66;99140.06;4912033;28;98613;-62
2021/01/25 05:28:17;;;;;;;13.88;11.50;;;;;;;10.65;56.12;99148.78;4902710;28;99146;-62
2021/01/25 05:30:43;;;;;;;12.90;11.13;;;;;;;10.69;55.63;99146.25;4902076;28;97906;-62
2021/01/25 05:33:09;;;;;;;12.77;11.23;;;;;;;10.67;55.47;99149.28;4905912;28;114605;-62
2021/01/25 05:35:35;;;;;;;14.80;11.65;;;;;;;10.68;55.73;99158.94;4909229;28;128216;-62
2021/01/25 05:38:04;;;;;;;12.18;10.38;;;;;;;10.66;56.61;99155.75;4914461;28;98647;-62
2021/01/25 05:40:32;;;;;;;12.20;10.55;;;;;;;10.64;56.24;99154.47;4916283;28;97964;-62
2021/01/25 05:42:58;;;;;;;12.98;10.82;;;;;;;10.65;56.26;99158.75;4912816;28;97843;-62
2021/01/25 05:45:27;;;;;;;12.40;10.88;;;;;;;10.64;55.84;99160.66;4918260;28;98202;-62
2021/01/25 05:47:58;;;;;;;12.57;10.85;;;;;;;10.60;56.22;99162.34;4907537;28;98293;-62
2021/01/25 05:50:25;;;;;;;12.48;10.63;;;;;;;10.62;55.70;99159.38;4917589;28;97983;-62
2021/01/25 05:52:56;;;;;;;13.75;10.77;;;;;;;10.61;56.10;99165.81;4920727;28;97832;-62
2021/01/25 05:55:22;;;;;;;13.57;10.73;;;;;;;10.62;56.19;99162.06;4889303;28;98513;-62
2021/01/25 05:57:48;;;;;;;13.95;11.65;;;;;;;10.61;56.23;99169.34;4893449;28;98739;-62
2021/01/25 06:00:15;;;;;;;13.10;10.55;;;;;;;10.61;55.78;99163.13;4870668;28;127211;-62
2021/01/25 06:02:46;;;;;;;11.65;10.43;;;;;;;10.58;56.52;99167.25;4890051;28;113428;-63
2021/01/25 06:05:35;;;;;;;12.77;11.13;;;;;;;10.61;56.42;99171.22;4893402;28;98670;-63
2021/01/25 06:08:13;;;;;;;13.07;11.05;;;;;;;10.56;56.30;99167.53;4860946;28;98728;-62
2021/01/25 06:11:08;;;;;;;12.75;10.70;;;;;;;10.56;56.55;99170.22;4900530;28;98645;-62
2021/01/25 06:14:09;;;;;;;14.55;10.98;;;;;;;10.54;56.45;99161.66;4888366;28;113184;-62
2021/01/25 06:16:35;;;;;;;11.77;10.38;;;;;;;10.56;56.40;99162.13;4900845;28;98451;-62
2021/01/25 06:19:09;;;;;;;12.48;10.73;;;;;;;10.53;56.25;99162.75;4906084;28;98435;-62
2021/01/25 06:21:37;;;;;;;12.88;10.65;;;;;;;10.56;56.43;99164.81;4898737;28;125590;-62
2021/01/25 06:24:04;;;;;;;12.73;10.85;;;;;;;10.56;55.79;99170.22;4865629;28;97944;-62
2021/01/25 06:26:31;;;;;;;14.65;11.30;;;;;;;10.55;56.16;99176.72;4886104;28;115451;-62
2021/01/25 06:29:06;;;;;;;12.63;10.85;;;;;;;10.54;56.33;99175.13;4904141;28;98963;-62
2021/01/25 06:31:36;;;;;;;13.13;11.00;;;;;;;10.53;56.50;99178.09;4906837;28;99459;-62
2021/01/25 06:34:03;;;;;;;12.13;10.57;;;;;;;10.54;56.02;99183.19;4876729;28;98930;-62
2021/01/25 06:36:30;;;;;;;11.80;9.93;;;;;;;10.52;55.87;99185.38;4896461;28;111973;-62
2021/01/25 06:38:57;;;;;;;11.95;9.85;;;;;;;10.50;56.14;99184.91;4886315;28;122585;-62
2021/01/25 06:41:23;;;;;;;11.40;10.13;;;;;;;10.51;55.96;99191.88;4904350;28;98563;-62
2021/01/25 06:43:50;;;;;;;11.60;9.90;;;;;;;10.52;56.15;99193.47;4913604;28;120103;-62
2021/01/25 06:46:20;;;;;;;12.25;10.50;;;;;;;10.51;55.67;99208.03;4921773;28;128825;-62
2021/01/25 06:48:51;;;;;;;11.73;10.18;;;;;;;10.49;56.09;99204.03;4913568;28;98422;-63
2021/01/25 06:51:18;;;;;;;11.85;9.65;;;;;;;10.50;56.50;99206.44;4904171;28;97982;-62
2021/01/25 06:53:47;;;;;;;13.20;10.88;;;;;;;10.52;56.13;99211.53;4901511;28;98169;-62
2021/01/25 06:56:13;;;;;;;12.05;10.18;;;;;;;10.52;55.83;99216.91;4886506;28;99552;-62
2021/01/25 06:58:48;;;;;;;11.43;10.20;;;;;;;10.52;55.92;99214.22;4860667;28;128652;-62
2021/01/25 07:01:19;;;;;;;13.05;10.55;;;;;;;10.51;56.31;99221.50;4891779;28;97884;-62
2021/01/25 07:03:56;;;;;;;12.25;10.43;;;;;;;10.50;56.19;99222.63;4890067;28;98134;-62
2021/01/25 07:06:35;;;;;;;12.65;10.68;;;;;;;10.53;56.08;99231.97;4889490;28;99286;-62
2021/01/25 07:09:04;;;;;;;13.02;11.02;;;;;;;10.52;56.03;99238.47;4893023;28;100359;-62
2021/01/25 07:11:30;;;;;;;13.20;10.35;;;;;;;10.54;55.60;99236.28;4902313;28;98585;-62
2021/01/25 07:13:56;;;;;;;12.30;10.68;;;;;;;10.56;55.76;99239.47;4882100;28;121716;-62
2021/01/25 07:16:27;;;;;;;11.52;10.15;;;;;;;10.54;56.01;99244.38;4903218;28;99527;-62
2021/01/25 07:18:53;;;;;;;11.73;9.77;;;;;;;10.57;55.52;99254.53;4903839;28;99194;-62
2021/01/25 07:21:20;;;;;;;10.60;9.45;;;;;;;10.57;55.98;99251.84;4921347;28;97951;-62
2021/01/25 07:23:47;;;;;;;12.65;9.95;;;;;;;10.61;55.13;99252.88;4920610;28;97667;-62
2021/01/25 07:26:15;;;;;;;11.60;10.15;;;;;;;10.62;55.31;99262.56;4920915;28;98396;-63
2021/01/25 07:28:41;;;;;;;12.20;9.85;;;;;;;10.62;56.11;99261.75;4911931;28;125057;-62
2021/01/25 07:31:08;;;;;;;11.52;9.80;;;;;;;10.63;55.71;99264.16;4920739;28;120319;-62
2021/01/25 07:33:34;;;;;;;12.30;10.15;;;;;;;10.65;55.71;99266.53;4912900;28;98061;-62
2021/01/25 07:36:00;;;;;;;11.57;10.38;;;;;;;10.66;55.73;99276.25;4920346;28;98930;-62
2021/01/25 07:38:30;;;;;;;11.75;10.13;;;;;;;10.67;56.12;99267.84;4912905;28;97709;-62
2021/01/25 07:40:57;;;;;;;12.20;10.30;;;;;;;10.70;55.82;99272.66;4903251;28;98246;-62
2021/01/25 07:43:31;;;;;;;12.02;10.50;;;;;;;10.71;55.94;99276.16;4920867;28;113873;-62
2021/01/25 07:46:07;;;;;;;11.43;9.85;;;;;;;10.70;55.37;99274.56;4903671;28;98566;-62
2021/01/25 07:48:34;;;;;;;10.80;9.52;;;;;;;10.79;55.85;99276.25;4920838;28;99204;-62
2021/01/25 07:51:00;;;;;;;11.15;9.60;;;;;;;10.86;55.38;99267.00;4919484;28;122920;-62
2021/01/25 07:53:36;;;;;;;10.68;9.57;;;;;;;10.87;55.31;99280.16;4912825;28;97863;-62
2021/01/25 07:56:18;;;;;;;10.48;9.38;;;;;;;10.90;55.31;99281.47;5041880;27;97805;-61
2021/01/25 07:58:44;;;;;;;10.52;9.43;;;;;;;11.03;55.61;99276.06;5020429;27;97978;-61
2021/01/25 08:01:16;;;;;;;10.82;9.63;;;;;;;11.22;55.16;99270.59;5017364;27;98278;-61
2021/01/25 08:03:43;;;;;;;10.20;9.03;;;;;;;11.41;54.66;99272.41;4984531;27;120726;-62
2021/01/25 08:06:10;;;;;;;10.50;9.43;;;;;;;11.59;54.14;99279.56;5000793;27;97901;-61
2021/01/25 08:08:36;;;;;;;10.80;9.02;;;;;;;11.63;54.13;99277.06;5019004;27;97738;-61
2021/01/25 08:11:06;;;;;;;10.98;9.70;;;;;;;11.64;54.52;99284.88;5018386;27;126820;-61
2021/01/25 08:13:57;;;;;;;10.98;9.35;;;;;;;11.88;53.54;99278.44;4984020;27;98795;-61
2021/01/25 08:16:24;;;;;;;10.82;8.70;;;;;;;12.20;53.08;99290.94;5017807;27;97976;-61
2021/01/25 08:19:16;;;;;;;10.88;9.15;;;;;;;12.51;52.59;99296.41;4997081;27;100032;-61
2021/01/25 08:22:15;;;;;;;10.60;8.88;;;;;;;12.94;51.52;99293.97;4997331;27;123597;-61
2021/01/25 08:24:42;;;;;;;10.00;8.95;;;;;;;13.11;51.47;99301.34;5007546;27;98225;-61
2021/01/25 08:27:17;;;;;;;11.55;8.82;;;;;;;13.38;50.88;99308.47;5017386;27;97908;-62
2021/01/25 08:29:44;;;;;;;11.55;9.25;;;;;;;13.55;50.69;99302.31;5001382;27;98002;-61
2021/01/25 08:32:31;;;;;;;9.93;8.90;;;;;;;13.89;50.82;99301.59;5014743;27;119811;-62
2021/01/25 08:34:59;;;;;;;10.43;9.10;;;;;;;14.12;50.18;99299.53;4998709;27;98824;-62
2021/01/25 08:37:31;;;;;;;11.13;9.38;;;;;;;14.37;49.83;99295.22;4997546;27;97838;-62
2021/01/25 08:39:57;;;;;;;11.00;9.40;;;;;;;14.78;49.59;99293.13;4999402;27;97789;-62
2021/01/25 08:42:32;;;;;;;10.25;9.07;;;;;;;15.22;48.83;99305.41;4996486;27;122034;-61
2021/01/25 08:45:21;;;;;;;9.85;8.05;;;;;;;15.64;48.82;99300.91;4979288;27;118522;-61
2021/01/25 08:47:47;;;;;;;8.75;7.85;;;;;;;15.97;48.35;99302.16;4995722;27;122695;-62
2021/01/25 08:50:25;;;;;;;8.18;7.30;;;;;;;16.24;48.27;99300.81;4998868;27;111359;-62
2021/01/25 08:53:09;;;;;;;8.10;7.30;;;;;;;16.68;47.89;99305.50;4981189;27;98608;-62
2021/01/25 08:55:37;;;;;;;7.82;6.50;;;;;;;17.06;47.30;99296.34;4998417;27;99069;-62
2021/01/25 08:58:13;;;;;;;7.05;6.40;;;;;;;17.44;47.14;99303.38;4998874;27;98077;-62
2021/01/25 09:00:42;;;;;;;6.35;5.65;;;;;;;17.51;47.49;99300.09;5001101;27;105382;-62
2021/01/25 09:03:11;;;;;;;6.25;5.65;;;;;;;17.72;47.64;99302.69;5017851;27;98991;-62
2021/01/25 09:05:37;;;;;;;6.03;5.20;;;;;;;18.26;46.85;99299.63;5006720;27;98724;-62
2021/01/25 09:08:04;;;;;;;5.40;4.90;;;;;;;18.77;46.52;99294.44;4985343;27;98613;-62
2021/01/25 09:10:30;;;;;;;5.57;4.93;;;;;;;19.29;46.37;99294.19;4984569;27;111641;-62
2021/01/25 09:12:56;;;;;;;4.85;4.35;;;;;;;19.66;46.25;99306.78;4983263;28;98081;-62
2021/01/25 09:15:23;;;;;;;4.47;4.07;;;;;;;19.68;46.55;99307.22;4988157;27;128059;-62
2021/01/25 09:17:49;;;;;;;5.22;4.72;;;;;;;19.85;46.51;99306.84;5000190;27;97742;-62
2021/01/25 09:20:15;;;;;;;4.97;4.47;;;;;;;19.66;47.39;99317.72;4965828;27;110355;-62
2021/01/25 09:22:41;;;;;;;5.50;4.97;;;;;;;19.54;47.70;99322.13;4975592;27;98506;-63
2021/01/25 09:25:09;;;;;;;5.43;4.93;;;;;;;19.84;46.90;99319.69;4995509;27;128607;-62
2021/01/25 09:27:35;;;;;;;4.78;4.30;;;;;;;20.38;46.31;99318.09;5001989;27;104135;-62
2021/01/25 09:30:01;;;;;;;5.53;4.45;;;;;;;20.76;45.97;99317.31;5004273;27;111298;-63
2021/01/25 09:32:27;;;;;;;11.65;10.50;;;;;;;19.50;36.49;99318.50;5005675;27;98539;-63
2021/01/25 09:34:54;;;;;;;12.68;11.43;;;;;;;18.27;35.40;99323.03;4989133;27;125766;-63
2021/01/25 09:37:23;;;;;;;12.48;11.18;;;;;;;17.18;35.55;99334.47;4983441;27;98514;-63
2021/01/25 09:39:49;;;;;;;11.57;10.38;;;;;;;17.37;36.53;99335.81;4984723;27;97776;-62
2021/01/25 09:42:16;;;;;;;12.32;10.70;;;;;;;17.62;36.52;99336.66;4983220;28;128005;-62
2021/01/25 09:44:42;;;;;;;12.70;11.40;;;;;;;16.83;38.27;99339.50;4999213;27;98865;-62
2021/01/25 09:47:08;;;;;;;12.13;10.85;;;;;;;16.81;38.34;99335.50;5005324;27;98574;-61
2021/01/25 09:49:34;;;;;;;12.10;10.90;;;;;;;16.36;38.00;99345.16;5004212;27;111973;-62
2021/01/25 09:52:00;;;;;;;12.57;11.27;;;;;;;14.86;38.25;99357.41;4986853;27;98633;-62
2021/01/25 09:54:26;;;;;;;22.25;12.60;;;;;;;14.49;41.64;99352.31;4980387;28;127747;-63
2021/01/25 09:56:52;;;;;;;15.63;13.35;;;;;;;14.06;43.98;99360.41;4982756;28;97926;-63
2021/01/25 09:59:19;;;;;;;14.77;12.73;;;;;;;13.44;44.75;99363.25;4985663;27;97869;-62
2021/01/25 10:01:45;;;;;;;14.90;11.75;;;;;;;13.56;45.74;99362.66;4983792;28;99013;-60
2021/01/25 10:04:11;;;;;;;15.90;11.93;;;;;;;13.15;47.84;99364.53;4983871;28;107019;-62
2021/01/25 10:06:37;;;;;;;16.02;11.00;;;;;;;13.41;50.78;99374.75;4982161;28;101775;-62
2021/01/25 10:09:04;;;;;;;12.95;10.30;;;;;;;13.53;54.59;99371.44;4984304;28;97976;-62
2021/01/25 10:11:30;;;;;;;11.40;10.13;;;;;;;13.59;56.81;99364.75;4982940;28;121360;-62
2021/01/25 10:13:56;;;;;;;11.82;9.82;;;;;;;13.62;58.78;99372.25;4982840;28;127819;-62
2021/01/25 10:16:22;;;;;;;12.07;9.70;;;;;;;13.83;59.83;99377.88;4984730;28;98390;-62
2021/01/25 10:18:49;;;;;;;10.55;8.88;;;;;;;13.97;60.89;99379.38;4988751;27;97789;-62
2021/01/25 10:21:18;;;;;;;11.52;8.88;;;;;;;13.98;61.88;99378.25;5003326;27;121009;-62
2021/01/25 10:23:46;;;;;;;11.25;8.88;;;;;;;14.11;62.15;99378.41;5003862;27;98817;-62
2021/01/25 10:26:12;;;;;;;10.88;8.80;;;;;;;14.24;62.39;99380.22;5002146;27;110172;-62
2021/01/25 10:28:38;;;;;;;9.60;8.55;;;;;;;14.23;62.79;99384.84;5004747;27;97693;-62
2021/01/25 10:31:04;;;;;;;9.43;8.35;;;;;;;14.24;62.99;99385.63;5003026;27;128091;-62
2021/01/25 10:33:30;;;;;;;8.70;7.80;;;;;;;14.20;63.63;99390.09;5001696;27;126151;-62
2021/01/25 10:35:56;;;;;;;8.98;7.75;;;;;;;14.01;64.39;99393.06;4968984;27;98255;-62
2021/01/25 10:38:24;;;;;;;10.25;8.68;;;;;;;13.93;64.89;99389.25;5002343;27;109549;-61
2021/01/25 10:40:51;;;;;;;8.60;7.70;;;;;;;13.93;64.84;99399.28;5001574;27;99078;-62
2021/01/25 10:43:17;;;;;;;9.63;7.75;;;;;;;13.93;64.68;99393.88;5004362;27;98354;-62
2021/01/25 10:45:43;;;;;;;9.20;7.45;;;;;;;13.71;66.00;99394.75;5019066;27;107684;-62
2021/01/25 10:48:09;;;;;;;8.20;7.32;;;;;;;13.48;66.27;99397.53;4987660;27;98131;-62
2021/01/25 10:50:35;;;;;;;8.18;7.38;;;;;;;13.44;66.66;99403.88;4980320;28;118134;-62
2021/01/25 10:53:01;;;;;;;8.38;7.47;;;;;;;13.51;65.98;99402.31;4980925;28;124750;-63
2021/01/25 10:55:27;;;;;;;8.85;7.45;;;;;;;13.62;65.56;99405.53;4983422;27;111549;-62
2021/01/25 10:57:53;;;;;;;8.60;7.10;;;;;;;13.81;65.50;99405.31;5001743;27;109774;-62
2021/01/25 11:00:21;;;;;;;8.32;7.40;;;;;;;14.09;64.38;99399.63;5002675;27;111711;-62
2021/01/25 11:02:47;;;;;;;7.85;7.05;;;;;;;14.04;64.48;99397.88;5002625;27;99225;-62
2021/01/25 11:05:21;;;;;;;8.00;7.20;;;;;;;14.06;64.55;99392.13;5004371;27;98039;-62
2021/01/25 11:07:47;;;;;;;8.90;7.35;;;;;;;13.93;65.31;99394.66;5004278;27;99283;-62
2021/01/25 11:10:22;;;;;;;8.00;7.15;;;;;;;13.94;65.12;99392.75;5002699;27;128406;-62
2021/01/25 11:12:49;;;;;;;8.27;7.47;;;;;;;13.90;65.16;99395.28;5002777;27;98559;-62
2021/01/25 11:15:16;;;;;;;8.48;7.47;;;;;;;14.05;65.17;99394.03;4997527;27;97895;-61
2021/01/25 11:17:42;;;;;;;8.40;7.25;;;;;;;14.10;64.39;99404.72;4983778;27;98035;-61
2021/01/25 11:20:09;;;;;;;8.25;7.40;;;;;;;14.10;65.03;99399.31;4981864;28;127526;-62
2021/01/25 11:22:35;;;;;;;9.23;7.75;;;;;;;14.24;64.05;99399.19;4982957;27;97947;-62
2021/01/25 11:25:01;;;;;;;8.32;7.22;;;;;;;14.33;63.93;99391.06;4982081;28;111339;-62
2021/01/25 11:27:27;;;;;;;8.35;7.18;;;;;;;14.39;63.78;99397.94;4983904;27;97845;-62
2021/01/25 11:29:53;;;;;;;7.13;6.43;;;;;;;14.65;63.76;99392.53;4983276;27;98261;-62
2021/01/25 11:32:19;;;;;;;8.32;7.35;;;;;;;14.77;63.18;99389.94;4983264;27;99582;-62
2021/01/25 11:34:45;;;;;;;8.15;7.05;;;;;;;14.85;63.59;99391.06;4981809;28;126602;-62
2021/01/25 11:37:12;;;;;;;7.57;6.78;;;;;;;14.83;63.33;99388.69;4982157;28;109762;-62
2021/01/25 11:39:39;;;;;;;7.78;6.70;;;;;;;14.83;64.01;99398.75;4983932;28;98237;-62
2021/01/25 11:42:05;;;;;;;7.20;6.50;;;;;;;14.73;63.79;99406.06;4983552;27;122070;-62
2021/01/25 11:44:31;;;;;;;7.90;7.10;;;;;;;14.70;63.49;99393.16;4963751;28;127755;-62
2021/01/25 11:46:57;;;;;;;7.97;6.78;;;;;;;14.64;63.75;99404.50;4964666;28;110828;-62
2021/01/25 11:49:23;;;;;;;6.97;6.28;;;;;;;14.51;63.83;99405.47;4981001;28;98471;-62